createdAt,value
2022-09-20T00:00:20.906Z,101230.75
2022-09-20T00:05:22.914Z,101229.88
2022-09-20T00:10:24.711Z,101225.44
2022-09-20T00:15:28.151Z,101230.75
2022-09-20T00:20:31.093Z,101228.03
2022-09-20T00:25:32.780Z,101236.81
2022-09-20T00:30:36.287Z,101234.25
2022-09-20T00:35:38.023Z,101235.94
2022-09-20T00:40:40.881Z,101235.00
2022-09-20T00:45:47.519Z,101235.94
2022-09-20T00:50:54.732Z,101245.63
2022-09-20T00:56:01.526Z,101243.91
2022-09-20T01:01:06.360Z,101247.50
2022-09-20T01:06:12.109Z,101244.81
2022-09-20T01:11:14.215Z,101252.78
2022-09-20T01:16:19.477Z,101250.19
2022-09-20T01:21:21.846Z,101250.25
2022-09-20T01:26:38.223Z,101250.22
2022-09-20T01:31:49.905Z,101238.78
2022-09-20T01:36:58.106Z,101237.88
2022-09-20T01:42:05.508Z,101234.38
2022-09-20T01:47:26.156Z,101241.44
2022-09-20T01:53:06.874Z,101247.59
2022-09-20T01:58:50.507Z,101252.03
2022-09-20T02:04:17.519Z,101259.09
2022-09-20T02:10:03.856Z,101260.00
2022-09-20T02:15:17.613Z,101261.78
2022-09-20T02:20:33.079Z,101259.13
2022-09-20T02:26:00.038Z,101266.22
2022-09-20T02:31:16.021Z,101267.06
2022-09-20T02:36:37.519Z,101269.75
2022-09-20T02:42:06.087Z,101271.50
2022-09-20T02:47:17.655Z,101277.69
2022-09-20T02:52:29.412Z,101275.03
2022-09-20T02:57:51.213Z,101279.47
2022-09-20T03:03:07.270Z,101275.94
2022-09-20T03:08:29.007Z,101278.59
2022-09-20T03:13:49.007Z,101288.31
2022-09-20T03:19:02.654Z,101285.63
2022-09-20T03:24:18.661Z,101303.31
2022-09-20T03:29:33.309Z,101296.25
2022-09-20T03:34:45.408Z,101302.44
2022-09-20T03:40:19.737Z,101307.72
2022-09-20T03:45:36.914Z,101305.09
2022-09-20T03:50:51.460Z,101311.25
2022-09-20T03:56:39.568Z,101309.50
2022-09-20T04:02:04.048Z,101316.59
2022-09-20T04:07:15.507Z,101311.28
2022-09-20T04:12:27.940Z,101318.31
2022-09-20T04:17:42.022Z,101313.03
2022-09-20T04:22:47.004Z,101322.75
2022-09-20T04:27:55.176Z,101324.50
2022-09-20T04:33:01.387Z,101318.34
2022-09-20T04:38:08.621Z,101323.63
2022-09-20T04:43:42.032Z,101321.88
2022-09-20T04:49:15.777Z,101331.59
2022-09-20T04:54:37.721Z,101319.22
2022-09-20T05:00:00.146Z,101327.19
2022-09-20T05:05:31.453Z,101325.41
2022-09-20T05:11:16.560Z,101335.09
2022-09-20T05:16:25.316Z,101361.59
2022-09-20T05:21:57.914Z,101362.47
2022-09-20T05:27:15.954Z,101368.66
2022-09-20T05:32:27.830Z,101374.84
2022-09-20T05:37:41.332Z,101386.34
2022-09-20T05:42:52.466Z,101392.53
2022-09-20T05:48:05.396Z,101394.34
2022-09-20T05:53:31.923Z,101391.69
2022-09-20T05:58:47.647Z,101407.63
2022-09-20T06:04:00.605Z,101406.75
2022-09-20T06:09:20.873Z,101406.75
2022-09-20T06:14:37.951Z,101412.06
2022-09-20T06:19:45.697Z,101420.88
2022-09-20T06:24:54.468Z,101417.38
2022-09-20T06:30:00.527Z,101414.72
2022-09-20T06:35:05.085Z,101427.06
2022-09-20T06:40:16.518Z,101429.72
2022-09-20T06:45:18.208Z,101437.66
2022-09-20T06:50:21.608Z,101442.09
2022-09-20T06:55:30.870Z,101440.19
2022-09-20T07:00:33.169Z,101439.41
2022-09-20T07:05:36.285Z,101450.97
2022-09-20T07:10:38.773Z,101458.94
2022-09-20T07:15:40.446Z,101458.94
2022-09-20T07:20:44.036Z,101464.25
2022-09-20T07:25:46.351Z,101463.34
2022-09-20T07:30:48.450Z,101474.53
2022-09-20T07:35:52.746Z,101478.72
2022-09-20T07:40:56.106Z,101483.88
2022-09-20T07:45:58.521Z,101489.03
2022-09-20T07:51:08.456Z,101487.00
2022-09-20T07:56:12.545Z,101496.81
2022-09-20T08:01:14.608Z,101491.00
2022-09-20T08:06:17.797Z,101503.84
2022-09-20T08:11:22.075Z,101505.22
2022-09-20T08:16:24.409Z,101502.78
2022-09-20T08:21:30.539Z,101518.28
2022-09-20T08:26:32.440Z,101517.41
2022-09-20T08:31:37.263Z,101516.91
2022-09-20T08:36:42.327Z,101527.66
2022-09-20T08:41:48.427Z,101541.13
2022-09-20T08:46:55.570Z,101531.03
2022-09-20T08:52:00.579Z,101542.28
2022-09-20T08:57:03.951Z,101543.44
2022-09-20T09:02:14.733Z,101552.25
2022-09-20T09:07:20.244Z,101544.19
2022-09-20T09:12:25.061Z,101547.09
2022-09-20T09:17:28.738Z,101543.91
2022-09-20T09:22:40.735Z,101553.00
2022-09-20T09:27:55.407Z,101549.22
2022-09-20T09:33:16.073Z,101551.19
2022-09-20T09:38:21.847Z,101561.91
2022-09-20T09:43:26.597Z,101569.91
2022-09-20T09:48:30.233Z,101568.38
2022-09-20T09:53:33.421Z,101567.44
2022-09-20T09:58:50.420Z,101576.47
2022-09-20T10:03:56.760Z,101572.34
2022-09-20T10:09:12.851Z,101578.47
2022-09-20T10:14:28.735Z,101569.34
2022-09-20T10:19:46.371Z,101568.34
2022-09-20T10:24:56.934Z,101571.03
2022-09-20T10:30:08.021Z,101558.63
2022-09-20T10:35:22.312Z,101567.84
2022-09-20T10:40:33.097Z,101579.06
2022-09-20T10:46:20.532Z,101579.84
2022-09-20T10:51:22.053Z,101573.31
2022-09-20T10:56:30.820Z,101579.16
2022-09-20T11:01:40.541Z,101589.84
2022-09-20T11:06:56.053Z,101577.28
2022-09-20T11:12:12.827Z,101582.84
2022-09-20T11:17:19.691Z,101581.09
2022-09-20T11:22:27.088Z,101588.97
2022-09-20T11:27:37.289Z,101586.97
2022-09-20T11:32:44.605Z,101578.25
2022-09-20T11:37:51.024Z,101595.38
2022-09-20T11:42:57.301Z,101590.00
2022-09-20T11:48:06.148Z,101582.69
2022-09-20T11:53:24.947Z,101586.00
2022-09-20T11:58:28.797Z,101598.78
2022-09-20T12:03:35.172Z,101595.50
2022-09-20T12:08:39.574Z,101586.59
2022-09-20T12:13:52.287Z,101584.75
2022-09-20T12:19:05.704Z,101581.84
2022-09-20T12:24:21.501Z,101583.91
2022-09-20T12:29:54.078Z,101593.38
2022-09-20T12:34:56.475Z,101585.97
2022-09-20T12:39:58.552Z,101575.72
2022-09-20T12:45:05.112Z,101589.81
2022-09-20T12:50:13.997Z,101583.06
2022-09-20T12:55:30.373Z,101589.03
2022-09-20T13:00:37.451Z,101583.13
2022-09-20T13:06:23.040Z,101590.69
2022-09-20T13:11:29.602Z,101591.44
2022-09-20T13:16:47.436Z,101616.41
2022-09-20T13:21:56.465Z,101675.28
2022-09-20T13:27:03.315Z,101697.97
2022-09-20T13:32:23.545Z,101690.00
2022-09-20T13:37:26.172Z,101682.91
2022-09-20T13:42:29.999Z,101673.16
2022-09-20T13:47:33.047Z,101659.88
2022-09-20T13:52:45.292Z,101666.09
2022-09-20T13:57:47.273Z,101660.81
2022-09-20T14:02:51.340Z,101666.97
2022-09-20T14:07:54.017Z,101658.97
2022-09-20T14:12:56.975Z,101655.38
2022-09-20T14:18:01.469Z,101659.81
2022-09-20T14:23:03.512Z,101650.06
2022-09-20T14:28:17.847Z,101661.63
2022-09-20T14:33:21.128Z,101667.84
2022-09-20T14:38:26.796Z,101663.41
2022-09-20T14:43:30.933Z,101660.75
2022-09-20T14:48:39.889Z,101653.72
2022-09-20T14:53:42.852Z,101660.78
2022-09-20T14:59:04.710Z,101659.00
2022-09-20T15:04:10.051Z,101656.31
2022-09-20T15:09:13.082Z,101664.31
2022-09-20T15:14:14.999Z,101674.06
2022-09-20T15:19:18.009Z,101672.28
2022-09-20T15:24:19.710Z,101678.47
2022-09-20T15:29:21.823Z,101681.13
2022-09-20T15:34:24.847Z,101690.81
2022-09-20T15:39:26.731Z,101682.66
2022-09-20T15:44:28.376Z,101683.06
2022-09-20T15:49:31.527Z,101684.91
2022-09-20T15:54:33.773Z,101681.56
2022-09-20T15:59:35.503Z,101680.81
2022-09-20T16:04:38.485Z,101684.44
2022-09-20T16:09:40.446Z,101685.38
2022-09-20T16:14:42.084Z,101687.19
2022-09-20T16:19:45.298Z,101692.50
2022-09-20T16:24:47.376Z,101707.66
2022-09-20T16:29:49.028Z,101709.47
2022-09-20T16:34:52.151Z,101710.38
2022-09-20T16:39:54.346Z,101719.25
2022-09-20T16:44:56.118Z,101713.03
2022-09-20T16:49:59.219Z,101718.31
2022-09-20T16:55:01.128Z,101715.63
2022-09-20T17:00:04.759Z,101735.06
2022-09-20T17:05:08.901Z,101730.53
2022-09-20T17:10:11.026Z,101741.97
2022-09-20T17:15:12.621Z,101739.22
2022-09-20T17:20:15.905Z,101744.34
2022-09-20T17:25:17.496Z,101762.00
2022-09-20T17:30:19.242Z,101762.91
2022-09-20T17:35:22.755Z,101766.34
2022-09-20T17:40:24.630Z,101767.00
2022-09-20T17:45:26.258Z,101769.53
2022-09-20T17:50:32.044Z,101777.34
2022-09-20T17:55:34.168Z,101784.28
2022-09-20T18:00:36.318Z,101790.50
2022-09-20T18:05:39.292Z,101793.19
2022-09-20T18:10:40.964Z,101790.59
2022-09-20T18:15:43.296Z,101797.69
2022-09-20T18:20:46.649Z,101794.91
2022-09-20T18:25:48.298Z,101804.53
2022-09-20T18:30:59.553Z,101804.47
2022-09-20T18:36:05.204Z,101815.97
2022-09-20T18:41:07.205Z,101825.69
2022-09-20T18:46:09.361Z,101831.06
2022-09-20T18:51:12.809Z,101833.75
2022-09-20T18:56:21.755Z,101844.25
2022-09-20T19:01:52.381Z,101842.19
2022-09-20T19:07:06.363Z,101842.78
2022-09-20T19:12:18.091Z,101852.28
2022-09-20T19:17:25.043Z,101849.25
2022-09-20T19:22:46.472Z,101845.69
2022-09-20T19:27:48.660Z,101851.56
2022-09-20T19:32:51.095Z,101861.97
2022-09-20T19:38:04.286Z,101862.81
2022-09-20T19:43:27.525Z,101867.31
2022-09-20T19:48:35.228Z,101881.03
2022-09-20T19:53:39.158Z,101886.03
2022-09-20T19:58:41.412Z,101887.66
2022-09-20T20:03:46.634Z,101887.47
2022-09-20T20:08:56.669Z,101889.59
2022-09-20T20:14:04.676Z,101894.88
2022-09-20T20:19:23.775Z,101903.16
2022-09-20T20:24:34.854Z,101914.75
2022-09-20T20:29:36.622Z,101915.28
2022-09-20T20:34:38.749Z,101914.16
2022-09-20T20:39:41.847Z,101924.44
2022-09-20T20:44:43.722Z,101925.19
2022-09-20T20:49:47.521Z,101936.47
2022-09-20T20:54:53.803Z,101934.75
2022-09-20T20:59:55.439Z,101927.59
2022-09-20T21:04:57.239Z,101930.69
2022-09-20T21:10:00.519Z,101936.63
2022-09-20T21:15:02.181Z,101940.13
2022-09-20T21:20:04.115Z,101939.25
2022-09-20T21:25:08.131Z,101941.38
2022-09-20T21:30:10.947Z,101947.50
2022-09-20T21:35:12.755Z,101949.19
2022-09-20T21:40:16.042Z,101953.56
2022-09-20T21:45:17.979Z,101959.66
2022-09-20T21:50:19.673Z,101969.88
2022-09-20T21:55:22.771Z,101975.03
2022-09-20T22:00:24.475Z,101967.81
2022-09-20T22:05:26.115Z,101975.81
2022-09-20T22:10:29.160Z,101981.22
2022-09-20T22:15:30.880Z,101980.13
2022-09-20T22:20:32.549Z,101987.84
2022-09-20T22:25:35.613Z,101978.69
2022-09-20T22:30:38.127Z,101988.16
2022-09-20T22:35:44.330Z,101982.78
2022-09-20T22:40:55.889Z,101976.56
2022-09-20T22:46:03.199Z,101981.47
2022-09-20T22:51:06.942Z,101980.66
2022-09-20T22:56:11.707Z,101973.19
2022-09-20T23:01:16.296Z,101980.22
2022-09-20T23:06:20.154Z,101992.34
2022-09-20T23:11:24.116Z,101989.38
2022-09-20T23:16:27.848Z,101988.06
2022-09-20T23:21:29.937Z,101992.19
2022-09-20T23:26:34.966Z,101994.41
2022-09-20T23:31:39.121Z,101993.47
2022-09-20T23:36:43.236Z,102003.78
2022-09-20T23:41:50.885Z,102001.25
2022-09-20T23:46:53.449Z,102008.91
2022-09-20T23:51:55.290Z,102009.91
2022-09-20T23:56:58.269Z,102007.41
